Time;durP1;ratioP1;P1;durP2;ratioP2;P2;SDS_P1;SDS_P2;PMS_P1;PMS_P2;Temp;Humidity;BMP_temperature;BMP_pressure;BME280_temperature;BME280_humidity;BME280_pressure;Samples;Min_cycle;Max_cycle;Signal;HPM_P1;HPM_P2
2023/02/06 00:00:22;;;;;;;29.23;19.03;;;;;;;0.14;100.00;98192.84;6216883;23;20457;-92
2023/02/06 00:02:49;;;;;;;30.13;19.93;;;;;;;0.06;100.00;98190.47;6192331;23;20436;-92
2023/02/06 00:05:21;;;;;;;29.87;20.10;;;;;;;0.02;100.00;98191.47;6217936;23;20450;-91
2023/02/06 00:07:46;;;;;;;25.83;17.60;;;;;;;0.05;100.00;98199.13;6218045;23;20419;-92
2023/02/06 00:10:13;;;;;;;28.50;17.77;;;;;;;0.14;100.00;98188.50;6188995;23;20472;-93
2023/02/06 00:12:39;;;;;;;26.60;19.30;;;;;;;0.10;100.00;98192.09;6188909;23;20428;-91
2023/02/06 00:15:05;;;;;;;28.10;18.43;;;;;;;0.02;100.00;98193.22;6188896;23;20415;-91
2023/02/06 00:17:37;;;;;;;24.13;17.23;;;;;;;0.04;100.00;98197.44;6189730;23;20020;-92
2023/02/06 00:20:05;;;;;;;25.07;16.03;;;;;;;0.06;100.00;98195.66;6214859;23;20042;-91
2023/02/06 00:22:31;;;;;;;28.90;18.53;;;;;;;-0.04;100.00;98199.41;6189089;23;20587;-91
2023/02/06 00:24:57;;;;;;;30.07;18.77;;;;;;;0.00;100.00;98201.03;6190234;23;20922;-91
2023/02/06 00:27:22;;;;;;;24.00;17.07;;;;;;;0.03;100.00;98200.91;6214775;23;20023;-92
2023/02/06 00:29:52;;;;;;;23.60;16.67;;;;;;;-0.02;100.00;98197.63;6214788;23;20015;-92
2023/02/06 00:32:18;;;;;;;24.87;17.00;;;;;;;0.02;100.00;98198.38;6189385;23;20019;-91
2023/02/06 00:34:44;;;;;;;21.40;15.83;;;;;;;-0.07;100.00;98204.66;6213804;23;20897;-92
2023/02/06 00:37:16;;;;;;;23.97;16.10;;;;;;;-0.08;100.00;98205.56;6239512;23;20004;-92
2023/02/06 00:39:42;;;;;;;24.73;17.37;;;;;;;-0.16;100.00;98199.78;6219526;23;20046;-92
2023/02/06 00:42:08;;;;;;;24.97;16.03;;;;;;;-0.15;100.00;98198.88;6193469;23;20492;-92
2023/02/06 00:44:38;;;;;;;25.03;16.93;;;;;;;-0.24;100.00;98200.81;6194423;23;20419;-92
2023/02/06 00:47:04;;;;;;;26.57;16.53;;;;;;;-0.30;100.00;98207.94;6219564;23;20479;-92
2023/02/06 00:49:29;;;;;;;23.23;16.40;;;;;;;-0.16;100.00;98210.97;6193994;23;20458;-91
2023/02/06 00:51:55;;;;;;;23.87;17.63;;;;;;;-0.09;100.00;98206.47;6218477;23;20016;-91
2023/02/06 00:54:22;;;;;;;25.70;17.60;;;;;;;-0.09;100.00;98204.72;6219512;23;20023;-92
2023/02/06 00:56:47;;;;;;;22.07;16.70;;;;;;;0.01;100.00;98199.28;6198069;23;20035;-92
2023/02/06 00:59:13;;;;;;;24.43;16.97;;;;;;;0.03;100.00;98202.66;6223755;23;20560;-92
2023/02/06 01:01:39;;;;;;;23.97;17.53;;;;;;;0.02;100.00;98203.56;6195282;23;20095;-92
2023/02/06 01:04:05;;;;;;;23.60;16.50;;;;;;;0.04;100.00;98196.59;6218594;23;20427;-92
2023/02/06 01:06:30;;;;;;;22.93;16.23;;;;;;;0.01;100.00;98194.94;6193655;23;20098;-92
2023/02/06 01:08:56;;;;;;;23.10;15.90;;;;;;;-0.06;100.00;98196.88;6216441;23;20012;-92
2023/02/06 01:11:24;;;;;;;26.70;16.23;;;;;;;-0.07;100.00;98189.16;6188885;23;20019;-92
2023/02/06 01:13:56;;;;;;;23.23;17.03;;;;;;;-0.21;100.00;98191.28;6188918;23;20798;-92
2023/02/06 01:16:23;;;;;;;21.67;15.57;;;;;;;-0.18;100.00;98180.88;6214128;23;20427;-92
2023/02/06 01:18:51;;;;;;;24.57;17.40;;;;;;;-0.13;100.00;98172.09;6189878;23;20443;-92
2023/02/06 01:21:22;;;;;;;23.63;17.03;;;;;;;-0.08;100.00;98174.53;6188595;23;20423;-91
2023/02/06 01:23:50;;;;;;;24.90;16.77;;;;;;;-0.11;100.00;98172.88;6188867;23;20425;-92
2023/02/06 01:26:18;;;;;;;22.40;16.67;;;;;;;-0.10;100.00;98178.88;6188788;23;20422;-92
2023/02/06 01:28:46;;;;;;;24.37;17.23;;;;;;;-0.08;100.00;98171.94;6188777;23;20513;-92
2023/02/06 01:31:17;;;;;;;23.80;15.90;;;;;;;-0.09;100.00;98175.44;6189634;23;20426;-93
2023/02/06 01:33:45;;;;;;;28.70;17.40;;;;;;;-0.26;100.00;98174.19;6215036;23;20411;-92
2023/02/06 01:36:13;;;;;;;25.30;15.73;;;;;;;-0.30;100.00;98182.09;6214667;23;20431;-92
2023/02/06 01:38:39;;;;;;;23.20;16.73;;;;;;;-0.27;100.00;98171.63;6192216;23;20451;-92
2023/02/06 01:41:07;;;;;;;24.93;16.90;;;;;;;-0.27;100.00;98177.69;6193322;23;20458;-91
2023/02/06 01:43:37;;;;;;;21.57;15.77;;;;;;;-0.35;100.00;98181.34;6193899;23;20417;-92
2023/02/06 01:46:04;;;;;;;23.90;17.93;;;;;;;-0.36;100.00;98177.09;6193532;23;20415;-92
2023/02/06 01:48:37;;;;;;;25.10;16.97;;;;;;;-0.38;100.00;98174.53;6194576;23;20418;-92
2023/02/06 01:51:07;;;;;;;23.30;16.23;;;;;;;-0.34;100.00;98170.97;6218776;23;20415;-93
2023/02/06 01:53:34;;;;;;;22.57;16.13;;;;;;;-0.41;100.00;98169.44;6194104;23;20478;-92
2023/02/06 01:56:03;;;;;;;23.40;16.07;;;;;;;-0.43;100.00;98176.41;6245159;23;20403;-92
2023/02/06 01:58:34;;;;;;;21.67;15.30;;;;;;;-0.44;100.00;98173.88;6193215;23;20392;-92
2023/02/06 02:01:00;;;;;;;24.77;17.40;;;;;;;-0.50;100.00;98175.75;6193318;23;20418;-92
2023/02/06 02:03:29;;;;;;;25.53;16.73;;;;;;;-0.62;100.00;98173.50;6193123;23;20407;-92
2023/02/06 02:06:00;;;;;;;23.70;16.80;;;;;;;-0.60;100.00;98174.31;6193841;23;20493;-93
2023/02/06 02:08:34;;;;;;;25.50;16.63;;;;;;;-0.65;100.00;98171.00;6219319;23;20461;-92
2023/02/06 02:11:02;;;;;;;16.55;11.88;;;;;;;-0.60;100.00;98169.16;6219092;23;20492;-92
2023/02/06 02:13:30;;;;;;;22.10;16.20;;;;;;;-0.64;100.00;98171.84;6218936;23;20347;-92
2023/02/06 02:16:01;;;;;;;23.50;16.33;;;;;;;-0.76;100.00;98167.88;6218783;23;20431;-92
2023/02/06 02:18:41;;;;;;;25.37;15.50;;;;;;;-0.78;100.00;98172.22;6218589;23;20442;-92
2023/02/06 02:21:16;;;;;;;21.77;16.23;;;;;;;-0.85;100.00;98171.53;6193904;23;20427;-92
2023/02/06 02:23:58;;;;;;;25.67;18.50;;;;;;;-0.85;100.00;98168.97;6193437;23;20453;-93
2023/02/06 02:26:45;;;;;;;22.02;15.45;;;;;;;-0.83;100.00;98182.69;6193318;23;20415;-92
2023/02/06 02:29:25;;;;;;;21.73;15.60;;;;;;;-0.88;100.00;98183.69;6217359;23;20439;-92
2023/02/06 02:35:07;;;;;;;24.23;15.43;;;;;;;-0.92;100.00;98190.69;6218254;23;20407;-91
2023/02/06 02:38:19;;;;;;;23.67;16.50;;;;;;;-0.92;100.00;98190.69;6218253;23;20442;-92
2023/02/06 02:41:14;;;;;;;23.90;15.83;;;;;;;-0.89;100.00;98198.34;6195540;23;20431;-92
2023/02/06 02:43:49;;;;;;;25.73;16.07;;;;;;;-0.87;100.00;98198.28;6195494;23;20453;-92
2023/02/06 02:46:25;;;;;;;27.60;17.20;;;;;;;-0.86;100.00;98203.44;6193516;23;20415;-92
2023/02/06 02:49:04;;;;;;;23.83;16.27;;;;;;;-0.97;100.00;98200.28;6218230;22;20427;-93
2023/02/06 02:51:33;;;;;;;22.67;16.00;;;;;;;-0.95;100.00;98204.50;6192623;23;20427;-92
2023/02/06 02:53:58;;;;;;;24.70;16.40;;;;;;;-0.96;100.00;98201.97;6217340;23;20407;-92
2023/02/06 02:56:26;;;;;;;23.13;16.30;;;;;;;-1.01;100.00;98196.06;6193255;23;20427;-93
2023/02/06 02:59:07;;;;;;;24.73;17.37;;;;;;;-1.06;100.00;98193.63;6193096;23;20099;-92
2023/02/06 03:01:41;;;;;;;25.07;17.13;;;;;;;-1.18;100.00;98193.91;6193118;23;20518;-92
2023/02/06 03:04:13;;;;;;;25.00;16.80;;;;;;;-1.13;100.00;98186.94;6193138;23;20478;-92
2023/02/06 03:06:42;;;;;;;24.27;17.43;;;;;;;-1.24;100.00;98192.38;6193722;23;20434;-92
2023/02/06 03:09:42;;;;;;;26.03;18.07;;;;;;;-1.42;100.00;98187.63;6193227;23;20407;-92
2023/02/06 03:12:16;;;;;;;28.67;19.10;;;;;;;-1.39;100.00;98187.56;6218159;23;20758;-92
2023/02/06 03:14:50;;;;;;;29.08;19.73;;;;;;;-1.51;100.00;98193.91;6193745;23;20449;-92
2023/02/06 03:17:19;;;;;;;27.60;18.67;;;;;;;-1.45;100.00;98192.88;6219097;23;20012;-92
2023/02/06 03:19:55;;;;;;;29.63;18.80;;;;;;;-1.50;100.00;98189.56;6193923;23;20039;-92
2023/02/06 03:22:26;;;;;;;28.70;19.00;;;;;;;-1.58;100.00;98181.16;6193050;23;20926;-92
2023/02/06 03:24:54;;;;;;;30.90;20.37;;;;;;;-1.70;100.00;98183.16;6193967;23;20422;-92
2023/02/06 03:27:21;;;;;;;32.00;20.53;;;;;;;-1.68;100.00;98188.25;6193745;23;20407;-92
2023/02/06 03:29:52;;;;;;;32.00;20.20;;;;;;;-1.73;100.00;98193.53;6193539;23;20482;-92
2023/02/06 03:32:26;;;;;;;31.10;21.17;;;;;;;-1.72;100.00;98199.53;6194155;23;20418;-93
2023/02/06 03:35:07;;;;;;;32.97;21.33;;;;;;;-1.72;100.00;98194.38;6219285;23;20423;-92
2023/02/06 03:37:35;;;;;;;33.63;21.40;;;;;;;-1.64;100.00;98201.94;6191667;23;20437;-92
2023/02/06 03:40:06;;;;;;;37.83;23.13;;;;;;;-1.63;100.00;98201.06;6188201;23;20472;-92
2023/02/06 03:42:37;;;;;;;38.67;23.73;;;;;;;-1.63;100.00;98203.66;6188716;23;20415;-92
2023/02/06 03:45:18;;;;;;;37.33;22.77;;;;;;;-1.60;100.00;98198.41;6187620;23;20741;-92
2023/02/06 03:47:45;;;;;;;36.90;24.50;;;;;;;-1.61;100.00;98202.75;6190442;23;20505;-92
2023/02/06 03:50:13;;;;;;;33.50;22.67;;;;;;;-1.62;100.00;98195.84;6189829;23;20480;-93
2023/02/06 03:52:49;;;;;;;35.63;23.93;;;;;;;-1.63;100.00;98193.34;6190546;23;20415;-92
2023/02/06 03:55:21;;;;;;;42.40;25.00;;;;;;;-1.66;100.00;98187.34;6189251;23;20481;-92
2023/02/06 03:57:53;;;;;;;39.50;25.23;;;;;;;-1.71;100.00;98178.88;6189003;23;20427;-92
2023/02/06 04:00:20;;;;;;;38.73;24.00;;;;;;;-1.77;100.00;98176.44;6188201;23;20948;-92
2023/02/06 04:02:47;;;;;;;38.73;24.67;;;;;;;-1.80;100.00;98171.34;6187500;23;20419;-92
2023/02/06 04:05:16;;;;;;;44.47;24.70;;;;;;;-1.88;100.00;98180.97;6186409;23;20415;-92
2023/02/06 04:07:42;;;;;;;42.30;25.23;;;;;;;-1.78;100.00;98189.34;6188753;23;20422;-92
2023/02/06 04:10:08;;;;;;;40.73;25.57;;;;;;;-1.70;100.00;98187.47;6195863;23;20426;-92
2023/02/06 04:12:34;;;;;;;56.03;29.80;;;;;;;-1.73;100.00;98188.38;6196288;23;20020;-92
2023/02/06 04:15:00;;;;;;;42.53;27.03;;;;;;;-1.67;100.00;98201.13;6197886;23;20067;-92
2023/02/06 04:17:25;;;;;;;47.80;27.37;;;;;;;-1.68;100.00;98194.28;6197147;23;20004;-92
2023/02/06 04:19:52;;;;;;;45.07;25.90;;;;;;;-1.68;100.00;98201.16;6196494;23;20064;-93
2023/02/06 04:22:18;;;;;;;41.50;25.83;;;;;;;-1.62;100.00;98189.84;6226189;23;20344;-93
2023/02/06 04:24:44;;;;;;;54.90;28.70;;;;;;;-1.61;100.00;98188.97;6250893;23;20759;-92
2023/02/06 04:27:13;;;;;;;45.30;27.13;;;;;;;-1.67;100.00;98193.41;6195680;23;20091;-92
2023/02/06 04:29:39;;;;;;;43.60;25.67;;;;;;;-1.57;100.00;98196.63;6194685;23;20699;-92
2023/02/06 04:32:05;;;;;;;71.23;38.10;;;;;;;-1.67;100.00;98187.41;6195280;23;20387;-92
2023/02/06 04:34:32;;;;;;;66.00;35.33;;;;;;;-1.68;100.00;98196.00;6194749;23;20452;-92
2023/02/06 04:36:59;;;;;;;47.63;27.50;;;;;;;-1.71;100.00;98202.09;6195350;23;20995;-91
2023/02/06 04:39:25;;;;;;;44.10;25.77;;;;;;;-1.72;100.00;98195.22;6190059;23;20434;-92
2023/02/06 04:41:52;;;;;;;38.53;23.23;;;;;;;-1.66;100.00;98197.66;6214464;23;20481;-92
2023/02/06 04:44:17;;;;;;;45.63;26.97;;;;;;;-1.73;100.00;98193.53;6189606;23;20438;-92
2023/02/06 04:46:44;;;;;;;40.90;25.33;;;;;;;-1.66;100.00;98200.25;6188921;23;20403;-92
2023/02/06 04:49:17;;;;;;;42.00;25.67;;;;;;;-1.71;100.00;98206.38;6188092;23;20016;-91
2023/02/06 04:51:43;;;;;;;29.75;18.23;;;;;;;-1.73;100.00;98209.00;6212656;23;20431;-92
2023/02/06 04:54:12;;;;;;;39.80;22.90;;;;;;;-1.69;100.00;98195.16;6186824;23;20459;-91
2023/02/06 04:56:38;;;;;;;41.43;24.80;;;;;;;-1.64;100.00;98199.34;6187279;23;20012;-91
2023/02/06 04:59:07;;;;;;;36.07;21.90;;;;;;;-1.63;100.00;98203.66;6189482;23;20453;-92
2023/02/06 05:01:33;;;;;;;39.57;23.37;;;;;;;-1.66;100.00;98199.41;6188064;23;20521;-91
2023/02/06 05:03:59;;;;;;;38.57;23.53;;;;;;;-1.63;100.00;98195.91;6186478;23;20422;-91
2023/02/06 05:06:30;;;;;;;38.57;23.87;;;;;;;-1.57;100.00;98188.03;6186589;23;20640;-91
2023/02/06 05:08:59;;;;;;;38.47;24.10;;;;;;;-1.60;100.00;98182.94;6218418;23;20012;-91
2023/02/06 05:11:25;;;;;;;37.80;23.20;;;;;;;-1.62;100.00;98184.69;6197760;23;20435;-92
2023/02/06 05:13:51;;;;;;;41.73;24.30;;;;;;;-1.67;100.00;98197.72;6225130;23;20823;-91
2023/02/06 05:16:18;;;;;;;37.50;22.47;;;;;;;-1.64;100.00;98202.81;6224745;23;20019;-91
2023/02/06 05:18:52;;;;;;;34.80;22.47;;;;;;;-1.69;100.00;98197.72;6199844;23;20399;-91
2023/02/06 05:21:20;;;;;;;39.23;22.10;;;;;;;-1.68;100.00;98202.03;6222555;23;20424;-92
2023/02/06 05:23:46;;;;;;;37.43;22.43;;;;;;;-1.73;100.00;98208.16;6198741;23;20419;-91
2023/02/06 05:26:12;;;;;;;39.10;22.97;;;;;;;-1.76;100.00;98203.91;6224511;23;20481;-92
2023/02/06 05:28:37;;;;;;;41.20;26.30;;;;;;;-1.86;100.00;98194.69;6198001;23;20015;-91
2023/02/06 05:31:04;;;;;;;43.07;26.43;;;;;;;-1.90;100.00;98196.50;6199250;23;20012;-92
2023/02/06 05:33:30;;;;;;;45.57;28.00;;;;;;;-1.93;100.00;98191.41;6200333;23;20043;-91
2023/02/06 05:36:06;;;;;;;38.20;23.47;;;;;;;-2.01;100.00;98190.75;6199639;23;20481;-91
2023/02/06 05:38:33;;;;;;;41.63;26.10;;;;;;;-1.87;100.00;98187.00;6220015;23;20066;-92
2023/02/06 05:40:58;;;;;;;42.03;25.67;;;;;;;-1.83;100.00;98197.22;6193202;23;20415;-91
2023/02/06 05:43:24;;;;;;;38.70;23.50;;;;;;;-1.67;100.00;98192.56;6193585;23;20423;-91
2023/02/06 05:45:50;;;;;;;37.47;23.27;;;;;;;-1.66;100.00;98181.34;6192258;23;20019;-91
2023/02/06 05:48:16;;;;;;;35.80;21.60;;;;;;;-1.60;100.00;98188.09;6187741;23;20388;-91
2023/02/06 05:50:50;;;;;;;34.83;21.80;;;;;;;-1.64;100.00;98181.28;6188575;23;20019;-92
2023/02/06 05:53:16;;;;;;;35.07;21.37;;;;;;;-1.66;100.00;98183.94;6189399;23;20019;-91
2023/02/06 05:55:44;;;;;;;38.63;22.47;;;;;;;-1.63;100.00;98177.84;6195515;23;20426;-91
2023/02/06 05:58:10;;;;;;;34.27;21.67;;;;;;;-1.77;100.00;98191.91;6197474;23;20427;-90
2023/02/06 06:00:40;;;;;;;35.20;22.17;;;;;;;-1.85;100.00;98196.38;6194734;23;21011;-92
2023/02/06 06:03:06;;;;;;;33.20;20.93;;;;;;;-1.88;100.00;98196.47;6190716;23;20498;-92
2023/02/06 06:05:32;;;;;;;37.63;22.33;;;;;;;-1.88;100.00;98204.19;6203619;23;21032;-91
2023/02/06 06:07:57;;;;;;;36.70;23.17;;;;;;;-1.93;100.00;98209.47;6192544;23;20035;-91
2023/02/06 06:10:23;;;;;;;35.47;21.53;;;;;;;-1.94;100.00;98204.34;6207261;23;20030;-90
2023/02/06 06:12:49;;;;;;;33.90;21.27;;;;;;;-1.89;100.00;98212.81;6183076;23;20026;-91
2023/02/06 06:15:15;;;;;;;36.00;21.67;;;;;;;-1.86;100.00;98212.75;6183329;23;20045;-92
2023/02/06 06:17:41;;;;;;;32.27;19.93;;;;;;;-1.97;100.00;98220.72;6188847;23;20035;-91
2023/02/06 06:20:07;;;;;;;42.00;23.53;;;;;;;-0.93;100.00;98222.56;6186539;23;20035;-89
2023/02/06 06:22:32;;;;;;;41.23;24.57;;;;;;;-1.70;100.00;98221.84;6182745;23;20034;-90
2023/02/06 06:24:59;;;;;;;39.20;23.90;;;;;;;-1.13;100.00;98214.47;6181052;23;20407;-86
2023/02/06 06:27:25;;;;;;;49.20;31.10;;;;;;;-0.11;100.00;98218.59;6176057;23;20015;-87
2023/02/06 06:29:51;;;;;;;202.43;121.53;;;;;;;0.54;100.00;98217.47;6177024;23;20502;-90
2023/02/06 06:32:17;;;;;;;34.67;22.97;;;;;;;-0.85;100.00;98225.78;6180717;23;20023;-89
2023/02/06 06:34:47;;;;;;;30.07;20.13;;;;;;;-1.01;100.00;98225.31;6205004;23;20046;-90
2023/02/06 06:37:14;;;;;;;37.93;22.97;;;;;;;-1.06;100.00;98218.59;6184956;23;20465;-90
2023/02/06 06:39:49;;;;;;;38.63;23.63;;;;;;;-1.34;100.00;98221.00;6193121;23;20933;-90
2023/02/06 06:42:25;;;;;;;29.90;20.47;;;;;;;-1.57;100.00;98204.34;6190504;23;21358;-90
2023/02/06 06:45:12;;;;;;;34.93;22.07;;;;;;;-1.58;100.00;98196.63;6195017;23;20473;-90
2023/02/06 06:47:38;;;;;;;32.57;21.10;;;;;;;-1.78;100.00;98199.69;6194414;23;20434;-90
2023/02/06 06:50:06;;;;;;;31.97;21.10;;;;;;;-1.74;100.00;98196.16;6192576;23;20423;-90
2023/02/06 06:52:39;;;;;;;33.50;21.53;;;;;;;-1.90;100.00;98200.81;6190959;23;20004;-90
2023/02/06 06:55:06;;;;;;;35.60;22.75;;;;;;;-1.92;100.00;98197.41;6188078;23;20434;-90
2023/02/06 06:57:35;;;;;;;33.50;21.87;;;;;;;-1.85;100.00;98200.69;6189874;23;20523;-90
2023/02/06 07:00:01;;;;;;;36.43;22.93;;;;;;;-1.83;100.00;98211.84;6189548;23;20497;-89
2023/02/06 07:02:27;;;;;;;37.53;22.17;;;;;;;-1.70;100.00;98213.25;6188415;23;20447;-89
2023/02/06 07:04:53;;;;;;;35.83;21.67;;;;;;;-1.51;100.00;98219.69;6187528;23;20744;-90
2023/02/06 07:07:20;;;;;;;33.23;22.03;;;;;;;-1.46;100.00;98222.16;6189686;23;20964;-90
2023/02/06 07:09:46;;;;;;;39.73;23.87;;;;;;;-1.33;100.00;98215.81;6187277;23;20476;-89
2023/02/06 07:12:14;;;;;;;44.47;23.93;;;;;;;-0.80;100.00;98210.19;6188265;23;20434;-90
2023/02/06 07:14:40;;;;;;;51.07;25.33;;;;;;;-1.09;100.00;98219.50;6187958;23;20433;-86
2023/02/06 07:17:09;;;;;;;39.47;23.00;;;;;;;-1.07;100.00;98219.50;6185729;23;20430;-84
2023/02/06 07:19:40;;;;;;;36.77;22.67;;;;;;;-1.21;100.00;98222.41;6189554;23;20103;-82
2023/02/06 07:22:06;;;;;;;34.97;22.23;;;;;;;-1.34;100.00;98216.72;6191146;23;20426;-84
2023/02/06 07:24:33;;;;;;;35.93;22.97;;;;;;;-1.25;100.00;98220.78;6194940;23;20415;-83
2023/02/06 07:26:59;;;;;;;34.27;21.77;;;;;;;-1.22;100.00;98213.81;6190583;23;20004;-83
2023/02/06 07:29:25;;;;;;;35.97;23.60;;;;;;;-1.26;100.00;98216.50;6190402;23;20457;-84
2023/02/06 07:31:50;;;;;;;35.97;23.40;;;;;;;-1.33;100.00;98209.81;6214756;23;20062;-84
2023/02/06 07:34:16;;;;;;;33.27;21.63;;;;;;;-1.38;100.00;98202.16;6191101;23;20115;-83
2023/02/06 07:36:44;;;;;;;32.10;21.67;;;;;;;-1.39;100.00;98197.91;6191252;23;20043;-84
2023/02/06 07:39:09;;;;;;;36.73;21.17;;;;;;;-1.45;100.00;98209.19;6215902;23;20016;-84
2023/02/06 07:41:35;;;;;;;35.17;20.83;;;;;;;-1.29;100.00;98209.69;6190619;23;20457;-83
2023/02/06 07:44:00;;;;;;;36.37;22.17;;;;;;;-1.14;100.00;98207.59;6216593;23;20459;-84
2023/02/06 07:46:27;;;;;;;37.50;22.93;;;;;;;-1.21;100.00;98205.19;6209186;23;20011;-84
2023/02/06 07:48:52;;;;;;;22.93;13.83;;;;;;;-1.35;100.00;98204.66;6226590;23;20208;-83
2023/02/06 07:51:29;;;;;;;16.53;10.37;;;;;;;-1.40;100.00;98198.78;6214600;23;20363;-84
2023/02/06 07:53:58;;;;;;;20.27;12.73;;;;;;;-1.31;100.00;98201.16;6214832;23;20023;-84
2023/02/06 07:56:30;;;;;;;17.20;10.07;;;;;;;-1.26;100.00;98194.13;6190152;23;20427;-84
2023/02/06 07:59:16;;;;;;;14.07;8.70;;;;;;;-1.19;100.00;98194.81;6216029;23;20526;-83
2023/02/06 08:02:10;;;;;;;15.63;8.77;;;;;;;-0.95;100.00;98185.59;6214515;23;21278;-84
2023/02/06 08:04:37;;;;;;;14.57;10.07;;;;;;;-0.76;100.00;98186.78;6237138;23;20450;-83
2023/02/06 08:07:04;;;;;;;17.87;12.20;;;;;;;-0.75;100.00;98185.91;6190849;23;20434;-85
2023/02/06 08:09:31;;;;;;;27.63;16.17;;;;;;;-0.73;100.00;98183.28;6191793;23;20066;-84
2023/02/06 08:11:58;;;;;;;22.97;14.67;;;;;;;-0.68;100.00;98183.16;6189754;23;20418;-84
2023/02/06 08:14:34;;;;;;;396.33;63.53;;;;;;;1.01;100.00;98186.59;6190908;23;20521;-84
2023/02/06 08:16:59;;;;;;;83.73;20.07;;;;;;;0.27;100.00;98189.00;6188790;23;20439;-85
2023/02/06 08:19:25;;;;;;;26.83;14.10;;;;;;;0.02;100.00;98181.13;6215706;23;20414;-84
2023/02/06 08:21:53;;;;;;;21.50;13.07;;;;;;;-0.24;100.00;98185.31;6215142;23;20031;-84
2023/02/06 08:24:18;;;;;;;19.93;13.00;;;;;;;-0.16;100.00;98185.09;6191152;23;20020;-85
2023/02/06 08:26:44;;;;;;;23.00;14.50;;;;;;;-0.44;100.00;98185.03;6193152;23;20438;-84
2023/02/06 08:29:13;;;;;;;19.83;12.67;;;;;;;-0.37;100.00;98186.59;6218393;23;20015;-85
2023/02/06 08:31:47;;;;;;;15.57;9.40;;;;;;;-0.49;100.00;98180.00;6197932;23;20067;-88
2023/02/06 08:34:14;;;;;;;19.47;11.03;;;;;;;-0.61;100.00;98172.59;6199773;23;20798;-88
2023/02/06 08:36:58;;;;;;;22.63;11.97;;;;;;;-0.63;100.00;98179.56;6201337;23;20442;-89
2023/02/06 08:39:23;;;;;;;17.65;10.52;;;;;;;-0.57;100.00;98183.69;6199806;23;20411;-89
2023/02/06 08:41:49;;;;;;;16.37;9.80;;;;;;;-0.58;100.00;98184.59;6199759;23;20020;-89
2023/02/06 08:44:16;;;;;;;27.70;15.73;;;;;;;-0.60;100.00;98194.13;6199318;23;20016;-88
2023/02/06 08:46:48;;;;;;;20.80;11.37;;;;;;;-0.57;100.00;98192.31;6225765;23;20012;-89
2023/02/06 08:49:17;;;;;;;38.80;18.03;;;;;;;-0.65;100.00;98198.56;6204160;23;20399;-89
2023/02/06 08:55:00;;;;;;;34.10;17.43;;;;;;;-0.54;100.00;98188.78;6227847;23;20418;-85
2023/02/06 08:57:27;;;;;;;43.97;24.00;;;;;;;-0.63;100.00;98189.06;6219128;23;20434;-86
2023/02/06 08:59:57;;;;;;;50.83;27.63;;;;;;;-0.68;100.00;98190.91;6192744;23;20423;-86
2023/02/06 09:02:29;;;;;;;24.43;13.27;;;;;;;-0.54;100.00;98194.81;6217976;23;20448;-86
2023/02/06 09:04:59;;;;;;;22.13;11.73;;;;;;;-0.40;100.00;98181.50;6238653;23;20493;-86
2023/02/06 09:10:38;;;;;;;14.88;10.05;;;;;;;-0.35;100.00;98184.78;6218560;23;20016;-86
2023/02/06 09:13:14;;;;;;;15.87;8.90;;;;;;;-0.35;100.00;98174.44;6195048;23;20023;-86
2023/02/06 09:15:52;;;;;;;14.03;8.10;;;;;;;-0.38;100.00;98184.88;6193039;23;20930;-85
2023/02/06 09:18:30;;;;;;;13.33;7.70;;;;;;;-0.17;100.00;98175.63;6192778;23;20770;-86
2023/02/06 09:21:11;;;;;;;15.17;7.87;;;;;;;-0.22;100.00;98169.78;6193837;23;20426;-86
2023/02/06 09:23:38;;;;;;;12.33;6.33;;;;;;;-0.12;100.00;98166.00;6219287;23;20485;-86
2023/02/06 09:26:04;;;;;;;17.33;6.70;;;;;;;0.08;100.00;98156.81;6220788;23;20407;-86
2023/02/06 09:28:34;;;;;;;13.27;6.50;;;;;;;0.09;100.00;98149.00;6240924;23;20482;-86
2023/02/06 09:31:00;;;;;;;12.40;6.10;;;;;;;0.04;100.00;98139.69;6225313;23;20441;-86
2023/02/06 09:33:36;;;;;;;16.33;7.27;;;;;;;0.03;100.00;98137.97;6193351;23;20067;-85
2023/02/06 09:36:14;;;;;;;11.97;6.43;;;;;;;0.21;100.00;98133.09;6192850;23;20463;-85
2023/02/06 09:38:48;;;;;;;11.83;6.17;;;;;;;0.17;100.00;98131.50;6192758;23;20454;-86
2023/02/06 09:41:24;;;;;;;16.00;9.30;;;;;;;-0.09;100.00;98126.28;6216995;23;20901;-86
2023/02/06 09:44:30;;;;;;;26.87;14.53;;;;;;;0.15;100.00;98135.88;6217601;23;20016;-85
2023/02/06 09:47:10;;;;;;;20.13;10.47;;;;;;;0.17;100.00;98120.31;6216407;23;20407;-86
2023/02/06 09:49:49;;;;;;;16.80;7.60;;;;;;;-0.11;100.00;98121.16;6217287;23;20375;-86
2023/02/06 09:52:29;;;;;;;13.37;7.10;;;;;;;0.26;100.00;98121.75;6190673;23;20458;-85
2023/02/06 09:55:14;;;;;;;14.77;7.47;;;;;;;0.21;100.00;98117.56;6243850;23;20391;-86
2023/02/06 09:57:49;;;;;;;13.70;7.03;;;;;;;0.11;100.00;98126.53;6192392;23;20469;-86
2023/02/06 10:03:46;;;;;;;12.63;6.13;;;;;;;0.31;100.00;98114.69;6217214;23;20437;-85
2023/02/06 10:06:23;;;;;;;10.93;6.20;;;;;;;0.31;100.00;98112.94;6191499;23;20438;-86
2023/02/06 10:09:16;;;;;;;11.20;5.30;;;;;;;0.01;100.00;98114.78;6193203;23;20482;-85
2023/02/06 10:11:46;;;;;;;9.67;5.73;;;;;;;-0.01;100.00;98106.19;6217389;23;20431;-86
2023/02/06 10:14:48;;;;;;;14.77;8.00;;;;;;;0.06;100.00;98110.28;6197265;23;20407;-86
2023/02/06 10:17:28;;;;;;;13.77;6.63;;;;;;;0.04;100.00;98116.41;6190785;23;20438;-86
2023/02/06 10:20:02;;;;;;;13.87;6.10;;;;;;;-0.14;100.00;98108.31;6220407;23;20419;-86
2023/02/06 10:22:42;;;;;;;13.97;5.97;;;;;;;-0.06;100.00;98110.69;6200199;23;20470;-86
2023/02/06 10:25:31;;;;;;;17.83;6.83;;;;;;;-0.11;100.00;98108.22;6226197;23;20474;-86
2023/02/06 10:28:06;;;;;;;1100.53;182.27;;;;;;;2.21;100.00;98110.38;6193777;23;20457;-85
2023/02/06 10:31:03;;;;;;;1604.97;347.50;;;;;;;3.31;100.00;98116.09;6217463;23;20418;-86
2023/02/06 10:34:06;;;;;;;1274.97;219.30;;;;;;;3.51;100.00;98108.25;6195445;23;20422;-91
2023/02/06 10:37:28;;;;;;;909.80;159.90;;;;;;;4.05;100.00;98091.91;6196187;23;20087;-92
2023/02/06 10:40:32;;;;;;;457.40;68.90;;;;;;;3.31;100.00;98067.53;6195819;23;20019;-89
2023/02/06 10:43:52;;;;;;;241.07;34.90;;;;;;;2.76;100.00;98062.19;6178894;23;20083;-86
2023/02/06 10:46:59;;;;;;;786.33;128.33;;;;;;;4.60;100.00;98058.81;6220449;23;20091;-92
2023/02/06 10:49:37;;;;;;;146.77;20.17;;;;;;;3.70;100.00;98044.97;6192491;23;20087;-89
2023/02/06 10:52:25;;;;;;;14.30;6.57;;;;;;;2.34;100.00;98044.91;6216192;23;20042;-89
2023/02/06 10:55:13;;;;;;;27.63;8.30;;;;;;;2.11;100.00;98048.47;6190539;23;20019;-86
2023/02/06 10:57:43;;;;;;;12.53;7.17;;;;;;;1.32;100.00;98065.38;6191313;23;20040;-86
2023/02/06 11:00:22;;;;;;;12.73;7.97;;;;;;;0.68;100.00;98065.13;6190740;23;20366;-85
2023/02/06 11:02:55;;;;;;;10.77;6.77;;;;;;;0.52;100.00;98069.13;6191882;23;20103;-86
2023/02/06 11:05:28;;;;;;;13.38;7.22;;;;;;;0.40;100.00;98071.25;6216905;23;20035;-87
2023/02/06 11:08:08;;;;;;;14.63;7.13;;;;;;;0.22;100.00;98056.31;6193327;23;20868;-87
2023/02/06 11:10:35;;;;;;;16.27;7.47;;;;;;;-0.14;100.00;98051.44;6209356;23;20001;-90
2023/02/06 11:13:12;;;;;;;23.37;12.87;;;;;;;0.21;100.00;98055.47;6211233;23;20044;-90
2023/02/06 11:15:55;;;;;;;16.73;7.97;;;;;;;0.06;100.00;98048.19;6194774;23;20016;-91
2023/02/06 11:18:37;;;;;;;30.73;9.70;;;;;;;0.17;100.00;98047.88;6192467;23;20019;-89
2023/02/06 11:21:08;;;;;;;421.60;57.45;;;;;;;1.14;100.00;98046.19;6244105;23;20199;-88
2023/02/06 11:23:43;;;;;;;503.77;67.43;;;;;;;2.03;100.00;98044.50;6220045;23;20455;-89
2023/02/06 11:26:18;;;;;;;18.97;8.80;;;;;;;0.88;100.00;98035.94;6193322;23;20434;-90
2023/02/06 11:29:01;;;;;;;14.87;8.17;;;;;;;1.27;100.00;98030.16;6217838;23;20016;-88
2023/02/06 11:31:44;;;;;;;1504.82;275.30;;;;;;;2.82;100.00;98024.72;6192629;23;20515;-89
2023/02/06 11:34:26;;;;;;;;;;;;;;;1.42;100.00;98021.81;6194130;23;20020;-86
2023/02/06 11:37:00;;;;;;;16.97;7.23;;;;;;;1.11;100.00;98028.16;6196902;23;19912;-86
2023/02/06 11:39:38;;;;;;;9.93;6.13;;;;;;;0.63;100.00;98021.25;6222012;23;20008;-86
2023/02/06 11:42:24;;;;;;;17.33;7.60;;;;;;;0.62;100.00;98021.31;6196330;23;20506;-87
2023/02/06 11:44:51;;;;;;;465.60;69.03;;;;;;;2.78;100.00;98023.13;6193124;23;20106;-87